createdAt,value
2019-01-23T19:27:52.010Z,92891.49
2019-01-23T19:30:24.944Z,92892.92
2019-01-23T19:32:54.720Z,92888.48
2019-01-23T19:35:25.427Z,92877.47
2019-01-23T19:37:55.810Z,92873.52
2019-01-23T19:40:25.211Z,92869.75
2019-01-23T19:42:59.046Z,92882.42
2019-01-23T19:45:28.512Z,92879.14
2019-01-23T19:47:57.881Z,92865.19
2019-01-23T19:53:07.200Z,92868.39
2019-01-23T19:55:38.015Z,92884.12
2019-01-23T19:58:07.472Z,92872.83
2019-01-23T20:00:39.218Z,92873.33
2019-01-23T20:03:10.384Z,92866.77
2019-01-23T20:05:40.443Z,92864.64
2019-01-23T20:08:10.767Z,92861.50
2019-01-23T20:10:40.166Z,92858.61
2019-01-23T20:13:10.416Z,92857.92
2019-01-23T20:15:39.815Z,92859.71
2019-01-23T20:18:12.458Z,92840.60
2019-01-23T20:23:27.971Z,92813.80
2019-01-23T20:25:58.395Z,92798.04
2019-01-23T20:28:29.304Z,92784.00
2019-01-23T20:30:58.819Z,92782.27
2019-01-23T20:33:28.726Z,92783.69
2019-01-23T20:35:58.204Z,92798.28
2019-01-23T20:38:28.072Z,92794.77
2019-01-23T20:40:57.703Z,92790.00
2019-01-23T20:43:27.822Z,92785.80
2019-01-23T20:45:57.350Z,92785.67
2019-01-23T20:48:26.724Z,92783.58
2019-01-23T20:50:56.275Z,92780.97
2019-01-23T20:53:25.908Z,92786.94
2019-01-23T20:55:55.406Z,92784.50
2019-01-23T20:58:25.005Z,92762.30
2019-01-23T21:00:55.110Z,92757.05
2019-01-23T21:03:24.721Z,92741.66
2019-01-23T21:05:54.272Z,92742.03
2019-01-23T21:08:24.184Z,92748.94
2019-01-23T21:10:53.903Z,92749.25
2019-01-23T21:13:23.483Z,92734.84
2019-01-23T21:15:53.058Z,92740.27
2019-01-23T21:18:22.453Z,92751.89
2019-01-23T21:20:51.953Z,92726.75
2019-01-23T21:23:21.384Z,92743.63
2019-01-23T21:25:50.926Z,92774.92
2019-01-23T21:28:20.372Z,92738.16
2019-01-23T21:30:49.860Z,92732.79
2019-01-23T21:33:19.361Z,92780.66
2019-01-23T21:35:48.861Z,92790.96
2019-01-23T21:38:18.402Z,92762.98
2019-01-23T21:40:47.851Z,92761.09
2019-01-23T21:43:17.772Z,92751.59
2019-01-23T21:45:47.526Z,92745.78
2019-01-23T21:48:21.131Z,92742.76
2019-01-23T21:50:52.556Z,92756.14
2019-01-23T21:53:23.373Z,92757.47
2019-01-23T21:55:54.630Z,92763.48
2019-01-23T21:58:24.987Z,92742.64
2019-01-23T22:00:59.493Z,92748.03
2019-01-23T22:03:29.495Z,92735.34
2019-01-23T22:05:59.080Z,92744.36
2019-01-23T22:08:28.729Z,92743.31
2019-01-23T22:10:58.284Z,92743.81
2019-01-23T22:13:29.389Z,92745.41
2019-01-23T22:15:59.003Z,92745.33
2019-01-23T22:18:28.565Z,92738.97
2019-01-23T22:20:58.180Z,92737.44
2019-01-23T22:23:28.299Z,92755.59
2019-01-23T22:25:57.868Z,92759.45
2019-01-23T22:28:27.307Z,92749.16
2019-01-23T22:30:56.654Z,92752.56
2019-01-23T22:33:26.079Z,92742.33
2019-01-23T22:35:55.495Z,92732.58
2019-01-23T22:38:24.890Z,92727.73
2019-01-23T22:40:54.238Z,92729.95
2019-01-23T22:43:23.635Z,92731.19
2019-01-23T22:45:52.997Z,92728.66
2019-01-23T22:48:22.358Z,92722.27
2019-01-23T22:50:51.685Z,92719.27
2019-01-23T22:53:21.051Z,92722.44
2019-01-23T22:55:50.430Z,92722.91
2019-01-23T22:58:19.818Z,92712.77
2019-01-23T23:01:24.981Z,92712.30
2019-01-23T23:03:54.551Z,92721.30
2019-01-23T23:06:23.993Z,92721.39
2019-01-23T23:08:53.346Z,92728.81
2019-01-23T23:11:22.729Z,92731.20
2019-01-23T23:13:52.168Z,92726.23
2019-01-23T23:16:21.537Z,92727.02
2019-01-23T23:18:50.883Z,92713.79
2019-01-23T23:21:20.287Z,92703.52
2019-01-23T23:23:49.619Z,92690.92
2019-01-23T23:26:19.335Z,92692.30
2019-01-23T23:28:48.762Z,92693.78
2019-01-23T23:31:18.151Z,92690.48
2019-01-23T23:33:47.526Z,92689.19
2019-01-23T23:36:16.910Z,92696.30
2019-01-23T23:38:46.266Z,92692.75
2019-01-23T23:41:15.631Z,92678.48
2019-01-23T23:43:44.979Z,92669.13
2019-01-23T23:46:14.295Z,92647.88
2019-01-23T23:48:43.735Z,92645.76
2019-01-23T23:51:13.070Z,92634.16
2019-01-23T23:53:42.446Z,92624.53
2019-01-23T23:56:11.779Z,92616.21
2019-01-23T23:58:41.158Z,92610.55
